Time;durP1;ratioP1;P1;durP2;ratioP2;P2;SDS_P1;SDS_P2;PMS_P1;PMS_P2;Temp;Humidity;BMP_temperature;BMP_pressure;BME280_temperature;BME280_humidity;BME280_pressure;Samples;Min_cycle;Max_cycle;Signal;HPM_P1;HPM_P2
2023/07/29 00:00:46;;;;;;;10.43;6.13;;;19.50;99.90;;;;;;5146897;27;20506;-79
2023/07/29 00:03:11;;;;;;;7.47;6.05;;;19.40;99.90;;;;;;5154988;27;20048;-79
2023/07/29 00:05:37;;;;;;;7.13;5.93;;;19.40;99.90;;;;;;5157495;27;20493;-80
2023/07/29 00:08:03;;;;;;;8.77;5.53;;;19.40;99.90;;;;;;5131975;27;20035;-79
2023/07/29 00:10:31;;;;;;;7.88;6.07;;;19.30;99.90;;;;;;5133348;27;20140;-79
2023/07/29 00:12:57;;;;;;;8.65;6.07;;;19.40;99.90;;;;;;5153093;27;20027;-79
2023/07/29 00:15:23;;;;;;;7.93;6.40;;;19.40;99.90;;;;;;5132483;27;20567;-79
2023/07/29 00:17:48;;;;;;;8.43;5.82;;;19.40;99.90;;;;;;5143834;27;20035;-79
2023/07/29 00:20:15;;;;;;;9.63;6.50;;;19.40;99.90;;;;;;5153402;27;20035;-79
2023/07/29 00:22:40;;;;;;;8.20;6.07;;;19.40;99.90;;;;;;5147484;27;20079;-80
2023/07/29 00:25:06;;;;;;;6.68;5.47;;;19.40;99.90;;;;;;5151309;27;20434;-80
2023/07/29 00:27:32;;;;;;;9.80;6.68;;;19.40;99.90;;;;;;5146184;27;20030;-80
2023/07/29 00:29:57;;;;;;;6.78;6.00;;;19.40;99.90;;;;;;5152460;27;20067;-79
2023/07/29 00:32:23;;;;;;;7.85;5.70;;;19.40;99.90;;;;;;5126701;27;20087;-80
2023/07/29 00:34:48;;;;;;;7.22;6.13;;;19.30;99.90;;;;;;5150947;27;20043;-80
2023/07/29 00:37:14;;;;;;;13.13;5.72;;;19.30;99.90;;;;;;5148001;27;20062;-81
2023/07/29 00:39:40;;;;;;;9.10;6.28;;;19.20;99.90;;;;;;5152399;27;20058;-80
2023/07/29 00:42:06;;;;;;;9.52;6.25;;;19.20;99.90;;;;;;5131145;27;20073;-80
2023/07/29 00:44:31;;;;;;;6.95;6.25;;;19.20;99.90;;;;;;5134961;27;20026;-80
2023/07/29 00:46:58;;;;;;;7.90;5.90;;;19.20;99.90;;;;;;5148955;27;20108;-80
2023/07/29 00:49:24;;;;;;;8.35;6.78;;;19.20;99.90;;;;;;5128854;27;20042;-79
2023/07/29 00:51:50;;;;;;;9.57;6.38;;;19.20;99.90;;;;;;5153789;27;20034;-79
2023/07/29 00:54:15;;;;;;;8.50;6.65;;;19.20;99.90;;;;;;5154345;27;20043;-80
2023/07/29 00:56:41;;;;;;;8.90;6.63;;;19.20;99.90;;;;;;5143939;27;20035;-78
2023/07/29 00:59:07;;;;;;;8.57;5.85;;;19.10;99.90;;;;;;5138837;27;20137;-79
2023/07/29 01:01:32;;;;;;;8.98;6.90;;;19.10;99.90;;;;;;5151962;27;20039;-79
2023/07/29 01:03:58;;;;;;;7.97;6.13;;;19.10;99.90;;;;;;5146390;27;20038;-80
2023/07/29 01:06:40;;;;;;;10.70;6.97;;;19.10;99.90;;;;;;5148494;27;20098;-79
2023/07/29 01:09:13;;;;;;;7.75;5.95;;;19.00;99.90;;;;;;5132676;27;20489;-80
2023/07/29 01:11:57;;;;;;;;;;;19.00;99.90;;;;;;5158471;27;20042;-79
2023/07/29 01:14:29;;;;;;;8.30;6.13;;;18.90;99.90;;;;;;5140366;27;19923;-79
2023/07/29 01:17:03;;;;;;;7.57;6.40;;;18.90;99.90;;;;;;5146905;27;20846;-79
2023/07/29 01:20:07;;;;;;;8.55;6.43;;;18.90;99.90;;;;;;5145704;27;20037;-81
2023/07/29 01:22:34;;;;;;;6.57;5.47;;;18.80;99.90;;;;;;5149582;27;20087;-80
2023/07/29 01:25:00;;;;;;;7.68;6.40;;;18.80;99.90;;;;;;5149313;27;20031;-80
2023/07/29 01:27:26;;;;;;;8.00;6.32;;;18.80;99.90;;;;;;5134898;27;20038;-79
2023/07/29 01:29:53;;;;;;;7.63;6.03;;;18.70;99.90;;;;;;5146741;27;20066;-80
2023/07/29 01:32:42;;;;;;;8.93;6.22;;;18.70;99.90;;;;;;5156623;27;20039;-80
2023/07/29 01:35:39;;;;;;;7.90;5.90;;;18.60;99.90;;;;;;5144457;27;20046;-80
2023/07/29 01:38:21;;;;;;;7.25;6.45;;;18.60;99.90;;;;;;5156909;27;20045;-81
2023/07/29 01:40:50;;;;;;;7.22;6.47;;;18.50;99.90;;;;;;5150137;27;20039;-80
2023/07/29 01:43:18;;;;;;;10.40;6.15;;;18.50;99.90;;;;;;5152035;27;20030;-80
2023/07/29 01:45:44;;;;;;;9.55;6.20;;;18.40;99.90;;;;;;5142748;27;20177;-80
2023/07/29 01:48:09;;;;;;;8.13;6.10;;;18.40;99.90;;;;;;5169371;27;20039;-79
2023/07/29 01:50:35;;;;;;;7.53;6.32;;;18.40;99.90;;;;;;5149248;27;20060;-80
2023/07/29 01:53:00;;;;;;;6.30;5.63;;;18.30;99.90;;;;;;5135818;27;20039;-80
2023/07/29 01:55:26;;;;;;;6.47;5.40;;;18.30;99.90;;;;;;5142188;27;20027;-80
2023/07/29 01:57:52;;;;;;;8.98;6.40;;;18.30;99.90;;;;;;5145562;27;20042;-80
2023/07/29 02:00:18;;;;;;;7.35;5.80;;;18.30;99.90;;;;;;5151969;27;20573;-79
2023/07/29 02:02:44;;;;;;;8.05;6.03;;;18.30;99.90;;;;;;5147382;27;20087;-80
2023/07/29 02:05:10;;;;;;;10.35;6.47;;;18.30;99.90;;;;;;5153766;27;20109;-80
2023/07/29 02:07:35;;;;;;;8.23;6.35;;;18.30;99.90;;;;;;5151911;27;20648;-79
2023/07/29 02:10:01;;;;;;;8.18;6.45;;;18.30;99.90;;;;;;5131079;27;20462;-79
2023/07/29 02:12:26;;;;;;;10.60;6.53;;;18.20;99.90;;;;;;5143035;27;20508;-80
2023/07/29 02:14:52;;;;;;;10.25;6.90;;;18.20;99.90;;;;;;5141119;27;20140;-79
2023/07/29 02:17:17;;;;;;;8.60;6.28;;;18.10;99.90;;;;;;5142526;27;20138;-80
2023/07/29 02:19:43;;;;;;;8.07;6.25;;;18.20;99.90;;;;;;5151829;27;20517;-80
2023/07/29 02:22:10;;;;;;;8.05;6.20;;;18.20;99.90;;;;;;5141524;27;20651;-79
2023/07/29 02:24:36;;;;;;;9.52;6.35;;;18.10;99.90;;;;;;5142217;27;20075;-80
2023/07/29 02:27:02;;;;;;;8.23;6.63;;;18.10;99.90;;;;;;5152741;27;20042;-80
2023/07/29 02:29:27;;;;;;;9.45;6.32;;;18.10;99.90;;;;;;5151514;27;20455;-80
2023/07/29 02:31:53;;;;;;;8.98;6.40;;;18.00;99.90;;;;;;5145825;27;20038;-80
2023/07/29 02:34:18;;;;;;;7.78;6.82;;;18.00;99.90;;;;;;5147183;27;20087;-79
2023/07/29 02:36:45;;;;;;;9.68;6.55;;;17.90;99.90;;;;;;5147837;27;20069;-79
2023/07/29 02:39:10;;;;;;;7.03;6.25;;;17.90;99.90;;;;;;5152832;27;20031;-79
2023/07/29 02:41:36;;;;;;;8.43;6.75;;;17.90;99.90;;;;;;5142911;27;20042;-79
2023/07/29 02:44:02;;;;;;;9.30;7.18;;;17.80;99.90;;;;;;5145674;27;20053;-80
2023/07/29 02:46:28;;;;;;;10.57;6.53;;;17.80;99.90;;;;;;5145172;27;20071;-80
2023/07/29 02:48:53;;;;;;;8.43;6.75;;;17.80;99.90;;;;;;5150742;27;20038;-79
2023/07/29 02:51:19;;;;;;;9.52;6.55;;;17.80;99.90;;;;;;5151214;27;20062;-79
2023/07/29 02:53:45;;;;;;;9.88;6.97;;;17.70;99.90;;;;;;5132096;27;20167;-79
2023/07/29 02:56:11;;;;;;;9.02;6.40;;;17.70;99.90;;;;;;5147940;27;20498;-80
2023/07/29 02:58:37;;;;;;;9.20;6.53;;;17.70;99.90;;;;;;5141701;27;20046;-80
2023/07/29 03:01:04;;;;;;;6.85;6.07;;;17.70;99.90;;;;;;5149658;27;20042;-79
2023/07/29 03:03:30;;;;;;;11.70;7.13;;;17.70;99.90;;;;;;5152111;27;20034;-79
2023/07/29 03:06:04;;;;;;;8.15;6.53;;;17.60;99.90;;;;;;5144377;27;20043;-79
2023/07/29 03:08:30;;;;;;;8.75;6.75;;;17.60;99.90;;;;;;5122923;27;20031;-79
2023/07/29 03:10:56;;;;;;;9.52;6.13;;;17.60;99.90;;;;;;5144507;27;20034;-79
2023/07/29 03:13:21;;;;;;;7.10;5.63;;;17.60;99.90;;;;;;5148022;27;20023;-80
2023/07/29 03:15:47;;;;;;;8.10;5.80;;;17.60;99.90;;;;;;5150200;27;20539;-79
2023/07/29 03:18:12;;;;;;;7.03;6.07;;;17.60;99.90;;;;;;5142976;27;20054;-79
2023/07/29 03:20:38;;;;;;;8.48;6.22;;;17.50;99.90;;;;;;5145575;27;20126;-79
2023/07/29 03:23:03;;;;;;;6.97;6.03;;;17.50;99.90;;;;;;5136663;27;20038;-79
2023/07/29 03:25:29;;;;;;;7.53;6.38;;;17.50;99.90;;;;;;5142722;27;20027;-79
2023/07/29 03:27:55;;;;;;;7.78;6.60;;;17.50;99.90;;;;;;5134093;27;20061;-79
2023/07/29 03:30:21;;;;;;;8.60;5.88;;;17.50;99.90;;;;;;5141404;27;20035;-79
2023/07/29 03:32:49;;;;;;;9.20;6.72;;;17.50;99.90;;;;;;5133535;27;20138;-79
2023/07/29 03:35:15;;;;;;;8.82;6.50;;;17.50;99.90;;;;;;5146568;27;20118;-80
2023/07/29 03:37:41;;;;;;;11.13;6.53;;;17.50;99.90;;;;;;5148207;27;20114;-79
2023/07/29 03:40:08;;;;;;;9.07;6.03;;;17.60;99.90;;;;;;5152597;27;20421;-79
2023/07/29 03:42:34;;;;;;;7.25;6.03;;;17.50;99.90;;;;;;5139715;27;20082;-79
2023/07/29 03:45:00;;;;;;;6.63;5.47;;;17.40;99.90;;;;;;5133001;27;20066;-79
2023/07/29 03:47:25;;;;;;;7.72;5.68;;;17.40;99.90;;;;;;5155723;27;20042;-79
2023/07/29 03:49:51;;;;;;;7.10;5.55;;;17.40;99.90;;;;;;5146025;27;20384;-80
2023/07/29 03:52:16;;;;;;;8.75;5.90;;;17.40;99.90;;;;;;5147374;27;20053;-79
2023/07/29 03:54:42;;;;;;;7.18;5.60;;;17.40;99.90;;;;;;5129139;27;20118;-79
2023/07/29 03:57:07;;;;;;;7.97;6.45;;;17.40;99.90;;;;;;5151010;27;20405;-80
2023/07/29 03:59:33;;;;;;;8.15;6.20;;;17.40;99.90;;;;;;5147228;27;20090;-79
2023/07/29 04:01:59;;;;;;;7.78;5.55;;;17.40;99.90;;;;;;5153848;27;20038;-79
2023/07/29 04:04:24;;;;;;;7.70;5.65;;;17.40;99.90;;;;;;5148907;27;20064;-79
2023/07/29 04:06:50;;;;;;;7.85;5.93;;;17.40;99.90;;;;;;5144939;27;20100;-79
2023/07/29 04:09:15;;;;;;;7.85;5.93;;;17.40;99.90;;;;;;5153432;27;20438;-79
2023/07/29 04:11:41;;;;;;;10.43;5.63;;;17.30;99.90;;;;;;5151642;27;20035;-79
2023/07/29 04:14:06;;;;;;;7.45;5.45;;;17.30;99.90;;;;;;5142855;27;20037;-78
2023/07/29 04:16:32;;;;;;;9.32;5.93;;;17.30;99.90;;;;;;5147706;27;20042;-79
2023/07/29 04:18:57;;;;;;;10.20;6.10;;;17.30;99.90;;;;;;5147238;27;20035;-79
2023/07/29 04:21:23;;;;;;;8.82;5.30;;;17.50;99.90;;;;;;5149110;27;20501;-79
2023/07/29 04:23:48;;;;;;;7.88;5.70;;;17.30;99.90;;;;;;5149355;27;20397;-79
2023/07/29 04:26:14;;;;;;;8.45;5.55;;;17.30;99.90;;;;;;5142426;27;20050;-79
2023/07/29 04:28:39;;;;;;;7.15;5.13;;;17.30;99.90;;;;;;5150291;27;20027;-79
2023/07/29 04:31:05;;;;;;;8.00;5.35;;;17.30;99.90;;;;;;5149657;27;20035;-79
2023/07/29 04:33:31;;;;;;;7.78;4.88;;;17.30;99.90;;;;;;5141857;27;20481;-79
2023/07/29 04:35:57;;;;;;;7.43;4.95;;;17.30;99.90;;;;;;5145701;27;20034;-79
2023/07/29 04:38:30;;;;;;;7.40;4.50;;;17.30;99.90;;;;;;5151483;27;20035;-79
2023/07/29 04:40:56;;;;;;;8.88;4.57;;;17.30;99.90;;;;;;5150751;27;20072;-78
2023/07/29 04:43:21;;;;;;;6.15;4.22;;;17.40;99.90;;;;;;5141994;27;20580;-79
2023/07/29 04:45:47;;;;;;;6.25;4.18;;;17.40;99.90;;;;;;5140301;27;20041;-78
2023/07/29 04:48:12;;;;;;;6.95;3.88;;;17.40;99.90;;;;;;5141142;27;20030;-78
2023/07/29 04:50:38;;;;;;;7.43;3.90;;;17.50;99.90;;;;;;5148030;27;20081;-78
2023/07/29 04:53:03;;;;;;;7.55;3.40;;;17.60;99.90;;;;;;5143557;27;20066;-78
2023/07/29 04:55:29;;;;;;;7.00;3.40;;;17.60;99.90;;;;;;5142237;27;20038;-79
2023/07/29 04:57:54;;;;;;;5.78;3.70;;;17.70;99.90;;;;;;5146049;27;20489;-79
2023/07/29 05:00:20;;;;;;;4.97;3.25;;;17.70;99.90;;;;;;5140987;27;20584;-79
2023/07/29 05:02:45;;;;;;;6.72;3.55;;;17.70;99.90;;;;;;5127714;27;20055;-77
2023/07/29 05:05:11;;;;;;;4.55;3.10;;;17.70;99.90;;;;;;5150274;27;20030;-79
2023/07/29 05:07:37;;;;;;;6.40;3.08;;;17.80;99.90;;;;;;5149323;27;20126;-79
2023/07/29 05:10:02;;;;;;;6.85;3.40;;;17.80;99.90;;;;;;5151888;27;20078;-79
2023/07/29 05:12:29;;;;;;;6.03;3.00;;;17.80;99.90;;;;;;5147999;27;20035;-79
2023/07/29 05:14:54;;;;;;;5.00;3.03;;;17.80;99.90;;;;;;5146027;27;20035;-79
2023/07/29 05:17:20;;;;;;;5.93;2.85;;;17.80;99.90;;;;;;5146040;27;20079;-79
2023/07/29 05:19:45;;;;;;;5.15;2.97;;;17.80;99.90;;;;;;5152406;27;20091;-79
2023/07/29 05:22:12;;;;;;;3.78;2.78;;;17.80;99.90;;;;;;5140246;27;20051;-79
2023/07/29 05:24:37;;;;;;;3.90;3.05;;;17.80;99.90;;;;;;5117391;27;20095;-79
2023/07/29 05:27:03;;;;;;;5.93;3.05;;;17.80;99.90;;;;;;5104779;27;1033506;-80
2023/07/29 05:29:28;;;;;;;5.70;2.90;;;17.80;99.90;;;;;;5148440;27;20094;-79
2023/07/29 05:31:54;;;;;;;6.65;3.00;;;17.80;99.90;;;;;;5155058;27;20048;-80
2023/07/29 05:34:19;;;;;;;4.30;2.92;;;17.80;99.90;;;;;;5142068;27;20409;-79
2023/07/29 05:36:45;;;;;;;5.72;2.83;;;17.80;99.90;;;;;;5149207;27;20039;-79
2023/07/29 05:39:12;;;;;;;5.32;3.00;;;17.90;99.90;;;;;;5146535;27;20046;-79
2023/07/29 05:41:37;;;;;;;5.63;2.80;;;17.90;99.90;;;;;;5147669;27;20110;-79
2023/07/29 05:44:03;;;;;;;5.55;3.00;;;17.90;99.90;;;;;;5147826;27;20094;-78
2023/07/29 05:46:28;;;;;;;4.70;2.72;;;18.00;99.90;;;;;;5144704;27;20545;-79
2023/07/29 05:48:54;;;;;;;4.57;2.70;;;18.00;99.90;;;;;;5146895;27;20039;-79
2023/07/29 05:51:20;;;;;;;4.53;3.00;;;18.00;99.90;;;;;;5144508;27;20039;-79
2023/07/29 05:53:45;;;;;;;3.97;2.70;;;18.00;99.90;;;;;;5136045;27;20047;-79
2023/07/29 05:56:11;;;;;;;4.55;2.83;;;18.00;99.90;;;;;;5137287;27;20031;-80
2023/07/29 05:58:36;;;;;;;5.97;2.80;;;18.00;99.90;;;;;;5136986;27;20709;-79
2023/07/29 06:01:02;;;;;;;5.53;2.92;;;18.00;99.90;;;;;;5139251;27;20042;-80
2023/07/29 06:03:27;;;;;;;6.63;3.17;;;18.00;99.90;;;;;;5137217;27;20455;-79
2023/07/29 06:05:54;;;;;;;4.75;2.90;;;18.00;99.90;;;;;;5136976;27;20478;-80
2023/07/29 06:08:19;;;;;;;4.93;2.75;;;18.00;99.90;;;;;;5140008;27;20045;-79
2023/07/29 06:10:45;;;;;;;5.95;2.80;;;18.10;99.90;;;;;;5142698;27;20126;-80
2023/07/29 06:13:10;;;;;;;7.35;3.10;;;18.10;99.90;;;;;;5138493;27;20045;-79
2023/07/29 06:15:36;;;;;;;6.28;2.78;;;18.10;99.90;;;;;;5144756;27;20115;-80
2023/07/29 06:18:02;;;;;;;6.15;2.78;;;18.10;99.90;;;;;;5144538;27;20076;-79
2023/07/29 06:20:28;;;;;;;6.18;2.90;;;18.10;99.90;;;;;;5126630;27;20035;-79
2023/07/29 06:22:53;;;;;;;6.03;2.70;;;18.20;99.90;;;;;;5148213;27;20289;-80
2023/07/29 06:25:19;;;;;;;5.82;3.25;;;18.30;99.90;;;;;;5143447;27;20534;-78
2023/07/29 06:27:44;;;;;;;6.00;2.80;;;18.40;99.90;;;;;;5147398;27;20038;-79
2023/07/29 06:30:10;;;;;;;6.38;3.05;;;18.60;99.90;;;;;;5143208;27;20034;-79
2023/07/29 06:32:36;;;;;;;5.30;3.00;;;18.70;99.90;;;;;;5144305;27;20034;-79
2023/07/29 06:35:01;;;;;;;5.00;2.90;;;18.80;99.90;;;;;;5144614;27;20034;-79
2023/07/29 06:37:27;;;;;;;3.88;2.33;;;18.90;99.90;;;;;;5139201;27;20097;-79
2023/07/29 06:39:52;;;;;;;5.07;2.78;;;19.00;99.90;;;;;;5146725;27;20030;-79
2023/07/29 06:42:18;;;;;;;5.95;2.50;;;19.00;99.90;;;;;;5144936;27;20064;-79
2023/07/29 06:44:45;;;;;;;6.13;2.50;;;19.10;99.90;;;;;;5131873;27;20045;-79
2023/07/29 06:47:11;;;;;;;7.55;2.60;;;19.10;99.90;;;;;;5136977;27;20072;-79
2023/07/29 06:49:36;;;;;;;6.90;2.60;;;19.10;99.90;;;;;;5144448;27;20042;-80
2023/07/29 06:52:02;;;;;;;5.45;2.80;;;19.10;99.90;;;;;;5125825;27;20045;-79
2023/07/29 06:54:28;;;;;;;6.00;2.83;;;19.20;99.90;;;;;;5143276;27;20095;-79
2023/07/29 06:56:53;;;;;;;7.35;2.78;;;19.20;99.90;;;;;;5152047;27;20049;-77
2023/07/29 06:59:19;;;;;;;8.40;3.03;;;19.40;99.90;;;;;;5139822;27;20038;-80
2023/07/29 07:01:45;;;;;;;7.60;2.60;;;19.50;99.90;;;;;;5150382;27;20038;-78
2023/07/29 07:04:10;;;;;;;5.22;2.75;;;19.60;99.90;;;;;;5123766;27;20345;-80
2023/07/29 07:06:36;;;;;;;7.10;2.75;;;19.80;99.90;;;;;;5136984;27;20035;-79
2023/07/29 07:09:01;;;;;;;8.13;3.08;;;19.90;99.90;;;;;;5135911;27;20047;-80
2023/07/29 07:11:27;;;;;;;9.60;3.03;;;20.00;99.90;;;;;;5124312;27;20439;-79
2023/07/29 07:13:52;;;;;;;6.88;3.30;;;20.00;99.90;;;;;;5138078;27;20457;-80
2023/07/29 07:16:18;;;;;;;9.35;3.10;;;20.00;99.90;;;;;;5140887;27;20038;-79
2023/07/29 07:18:43;;;;;;;6.88;2.75;;;20.00;99.90;;;;;;5133488;27;20042;-79
2023/07/29 07:21:09;;;;;;;5.28;2.88;;;19.90;99.90;;;;;;5141557;27;20061;-80
2023/07/29 07:23:35;;;;;;;6.20;3.20;;;20.00;99.90;;;;;;5147542;27;20058;-80
2023/07/29 07:26:00;;;;;;;5.78;2.85;;;20.00;99.90;;;;;;5148261;27;20031;-79
2023/07/29 07:28:26;;;;;;;7.00;3.17;;;19.90;99.90;;;;;;5149074;27;20113;-79
2023/07/29 07:30:51;;;;;;;8.88;3.10;;;19.90;99.90;;;;;;5147379;27;20024;-79
2023/07/29 07:33:17;;;;;;;5.90;2.92;;;19.90;99.90;;;;;;5150781;27;20031;-79
2023/07/29 07:35:42;;;;;;;6.22;3.50;;;20.00;99.90;;;;;;5146984;27;20074;-79
2023/07/29 07:38:09;;;;;;;9.70;3.60;;;20.00;99.90;;;;;;5143257;27;20043;-79
2023/07/29 07:40:35;;;;;;;10.60;3.95;;;20.10;99.90;;;;;;5150100;27;20035;-80
2023/07/29 07:43:01;;;;;;;7.15;3.83;;;20.10;99.90;;;;;;5147165;27;20117;-79
2023/07/29 07:45:26;;;;;;;6.80;3.88;;;20.20;99.90;;;;;;5143757;27;20119;-79
2023/07/29 07:47:53;;;;;;;8.27;3.63;;;20.20;99.90;;;;;;5122366;27;20034;-80
2023/07/29 07:50:19;;;;;;;6.53;3.45;;;20.30;99.90;;;;;;5146017;27;20061;-79
2023/07/29 07:52:45;;;;;;;7.15;3.60;;;20.40;99.90;;;;;;5148115;27;20035;-79
2023/07/29 07:55:10;;;;;;;6.85;3.88;;;20.50;99.90;;;;;;5150296;27;20085;-75
2023/07/29 07:57:36;;;;;;;7.47;4.10;;;20.60;99.90;;;;;;5148639;27;20407;-80
2023/07/29 08:00:02;;;;;;;5.68;3.30;;;20.70;99.90;;;;;;5133104;27;20069;-79
2023/07/29 08:02:27;;;;;;;6.22;3.47;;;20.70;99.90;;;;;;5146860;27;20442;-82
2023/07/29 08:04:53;;;;;;;8.52;3.28;;;20.80;99.90;;;;;;5145626;27;20037;-81
2023/07/29 08:07:18;;;;;;;10.73;3.50;;;20.80;99.90;;;;;;5120441;27;20046;-81
2023/07/29 08:09:44;;;;;;;7.45;3.47;;;20.90;99.90;;;;;;5147206;27;20408;-82
2023/07/29 08:12:09;;;;;;;8.10;3.20;;;21.00;99.90;;;;;;5153762;27;20553;-81
2023/07/29 08:14:35;;;;;;;6.25;2.97;;;21.10;99.90;;;;;;5152246;27;20409;-81
2023/07/29 08:17:01;;;;;;;6.53;3.22;;;21.20;99.90;;;;;;5129112;27;20035;-82
2023/07/29 08:19:27;;;;;;;5.13;3.00;;;21.20;99.90;;;;;;5152186;27;20042;-82
2023/07/29 08:21:52;;;;;;;6.45;2.72;;;21.40;99.90;;;;;;5138911;27;20035;-81
2023/07/29 08:24:18;;;;;;;6.30;2.60;;;21.60;99.90;;;;;;5148815;27;20155;-82
2023/07/29 08:26:44;;;;;;;9.32;2.80;;;21.70;99.90;;;;;;5155281;27;20111;-81
2023/07/29 08:29:09;;;;;;;5.30;2.83;;;21.80;99.90;;;;;;5152436;27;20039;-80
2023/07/29 08:31:35;;;;;;;6.60;2.60;;;21.70;99.90;;;;;;5150654;27;20114;-81
2023/07/29 08:34:00;;;;;;;6.85;2.63;;;21.50;99.90;;;;;;5155846;27;20122;-81
2023/07/29 08:36:26;;;;;;;3.97;2.20;;;21.20;99.90;;;;;;5148122;27;20039;-81
2023/07/29 08:38:52;;;;;;;6.13;2.75;;;21.00;99.90;;;;;;5134956;27;20503;-81
2023/07/29 08:41:34;;;;;;;6.85;2.40;;;21.00;99.90;;;;;;5137703;27;20033;-81
2023/07/29 08:44:18;;;;;;;8.35;2.72;;;20.90;99.90;;;;;;5152213;27;20039;-83
2023/07/29 08:46:44;;;;;;;5.03;2.17;;;21.00;99.90;;;;;;5138333;27;20034;-81
2023/07/29 08:49:13;;;;;;;8.88;2.50;;;21.10;99.90;;;;;;5133895;27;20042;-79
2023/07/29 08:51:41;;;;;;;5.35;2.60;;;21.10;99.90;;;;;;5155044;27;20034;-81
2023/07/29 08:54:07;;;;;;;6.82;2.50;;;21.30;99.90;;;;;;5153478;27;20045;-80
2023/07/29 08:56:33;;;;;;;5.85;2.40;;;21.30;99.90;;;;;;5151131;27;20041;-82
2023/07/29 08:59:01;;;;;;;7.78;2.45;;;21.40;99.90;;;;;;5127505;27;20069;-82
2023/07/29 09:01:27;;;;;;;6.60;2.25;;;21.40;99.90;;;;;;5145420;27;20039;-81
2023/07/29 09:03:53;;;;;;;7.38;2.35;;;21.40;99.90;;;;;;5137798;27;20042;-81
2023/07/29 09:06:20;;;;;;;6.38;2.47;;;21.40;99.90;;;;;;5137054;27;20039;-81
2023/07/29 09:08:47;;;;;;;7.28;2.40;;;21.50;99.90;;;;;;5148714;27;20069;-81
2023/07/29 09:11:16;;;;;;;4.75;2.00;;;21.40;99.90;;;;;;5148230;27;20386;-81
2023/07/29 09:13:42;;;;;;;5.47;1.85;;;21.50;99.90;;;;;;5145356;27;20035;-81
2023/07/29 09:16:09;;;;;;;11.27;1.95;;;21.50;99.90;;;;;;5131720;27;20050;-81
2023/07/29 09:18:35;;;;;;;5.97;1.90;;;21.50;99.90;;;;;;5154883;27;20035;-83
2023/07/29 09:21:01;;;;;;;4.13;1.88;;;21.60;99.90;;;;;;5146674;27;20031;-81
2023/07/29 09:23:27;;;;;;;7.30;2.08;;;21.70;99.90;;;;;;5147975;27;20069;-80
2023/07/29 09:26:03;;;;;;;5.18;1.80;;;21.80;99.90;;;;;;5153637;27;20490;-79
2023/07/29 09:28:37;;;;;;;3.30;1.60;;;21.90;99.90;;;;;;5145352;27;20079;-80
2023/07/29 09:31:03;;;;;;;4.80;1.88;;;22.10;99.90;;;;;;5141507;27;20035;-79
2023/07/29 09:33:31;;;;;;;4.22;1.50;;;22.10;99.90;;;;;;5145438;27;20035;-81
2023/07/29 09:35:57;;;;;;;6.82;1.92;;;22.00;99.90;;;;;;5150304;27;20038;-80
2023/07/29 09:38:29;;;;;;;4.15;1.60;;;22.00;99.90;;;;;;5149592;27;20030;-81
2023/07/29 09:40:57;;;;;;;2.95;1.42;;;22.00;99.90;;;;;;5150206;27;20073;-81
2023/07/29 09:43:34;;;;;;;4.18;1.55;;;22.10;99.90;;;;;;5146936;27;20035;-83
2023/07/29 09:46:04;;;;;;;4.75;1.73;;;22.20;99.90;;;;;;5151341;27;20035;-82
2023/07/29 09:48:37;;;;;;;6.40;1.75;;;22.50;99.90;;;;;;5157929;27;20027;-81
2023/07/29 09:51:13;;;;;;;3.83;1.60;;;22.80;99.90;;;;;;5151099;27;20064;-82
2023/07/29 09:53:47;;;;;;;5.00;1.63;;;23.00;99.90;;;;;;5146469;27;20041;-82
2023/07/29 09:56:13;;;;;;;3.17;1.70;;;23.30;99.90;;;;;;5150982;27;20079;-82
2023/07/29 09:58:39;;;;;;;3.25;1.40;;;23.30;99.90;;;;;;5155391;27;20038;-81
2023/07/29 10:01:08;;;;;;;7.15;1.70;;;23.30;99.90;;;;;;5149668;27;20505;-81
2023/07/29 10:03:36;;;;;;;2.90;1.38;;;23.20;99.90;;;;;;5143800;27;20095;-80
2023/07/29 10:06:03;;;;;;;2.55;1.25;;;23.40;99.90;;;;;;5136375;27;20518;-82
2023/07/29 10:08:35;;;;;;;5.68;1.67;;;23.50;99.90;;;;;;5145281;27;20106;-82
2023/07/29 10:11:01;;;;;;;3.38;1.30;;;23.50;99.90;;;;;;5146893;27;20045;-82
2023/07/29 10:13:27;;;;;;;6.15;1.30;;;23.50;99.90;;;;;;5148968;27;20037;-80
2023/07/29 10:15:57;;;;;;;2.95;1.40;;;23.40;99.90;;;;;;5144077;27;20077;-82
2023/07/29 10:18:23;;;;;;;3.80;1.40;;;23.20;99.90;;;;;;5141286;27;20075;-81
2023/07/29 10:20:51;;;;;;;4.00;1.33;;;23.20;99.90;;;;;;5153047;27;20031;-81
2023/07/29 10:23:18;;;;;;;1.98;1.17;;;23.20;99.90;;;;;;5136157;27;20039;-81
2023/07/29 10:25:49;;;;;;;3.33;1.30;;;23.30;99.90;;;;;;5152067;27;20045;-81
2023/07/29 10:28:17;;;;;;;3.58;1.40;;;23.40;99.90;;;;;;5152663;27;20151;-82
2023/07/29 10:30:43;;;;;;;4.03;1.30;;;23.20;99.90;;;;;;5146303;27;20035;-82
2023/07/29 10:33:10;;;;;;;3.97;1.45;;;23.10;99.90;;;;;;5151908;27;20034;-80
2023/07/29 10:35:37;;;;;;;3.10;1.30;;;23.10;99.90;;;;;;5139603;27;20058;-80
2023/07/29 10:38:04;;;;;;;5.90;1.45;;;23.00;99.90;;;;;;5143169;27;20087;-82
2023/07/29 10:40:59;;;;;;;4.45;1.50;;;23.10;99.90;;;;;;5151218;27;20086;-82
2023/07/29 10:43:33;;;;;;;3.80;1.60;;;23.40;99.90;;;;;;5151350;27;20428;-81
2023/07/29 10:46:17;;;;;;;5.53;1.70;;;23.40;99.90;;;;;;5135708;27;20027;-81
2023/07/29 10:48:51;;;;;;;;;;;23.50;99.90;;;;;;5141397;27;20095;-81
2023/07/29 10:51:24;;;;;;;;;;;23.50;99.90;;;;;;5128735;27;19933;-80
2023/07/29 10:53:56;;;;;;;4.43;1.90;;;23.70;99.90;;;;;;5147370;27;19916;-80
2023/07/29 10:56:30;;;;;;;5.07;1.83;;;23.70;99.90;;;;;;5144627;27;20039;-80
2023/07/29 10:59:02;;;;;;;3.45;1.70;;;23.80;99.90;;;;;;5139642;27;20029;-82
2023/07/29 11:01:34;;;;;;;4.30;1.50;;;23.70;99.90;;;;;;5139831;27;20476;-80
2023/07/29 11:04:24;;;;;;;3.88;1.70;;;23.40;99.90;;;;;;5120612;27;20066;-79
2023/07/29 11:07:12;;;;;;;5.07;1.65;;;23.00;99.90;;;;;;5131976;27;20040;-80
2023/07/29 11:09:56;;;;;;;3.17;1.17;;;22.80;99.90;;;;;;5122502;27;20055;-79
2023/07/29 11:12:35;;;;;;;4.55;1.10;;;22.90;99.90;;;;;;5146928;27;20047;-80
2023/07/29 11:15:14;;;;;;;2.85;1.10;;;23.00;99.90;;;;;;5140858;27;20043;-81
2023/07/29 11:17:44;;;;;;;4.05;1.20;;;23.20;99.90;;;;;;5144774;27;20039;-80
2023/07/29 11:20:11;;;;;;;1.70;1.02;;;23.40;99.90;;;;;;5145767;27;20061;-80
2023/07/29 11:22:38;;;;;;;3.70;1.15;;;23.50;99.90;;;;;;5142388;27;20036;-80
2023/07/29 11:25:05;;;;;;;3.45;1.40;;;23.70;99.90;;;;;;5118268;27;20050;-80
2023/07/29 11:27:30;;;;;;;8.10;1.33;;;23.70;99.90;;;;;;5144388;27;20042;-80
2023/07/29 11:30:01;;;;;;;3.20;1.20;;;23.60;99.90;;;;;;5142564;27;21065;-80
2023/07/29 11:32:27;;;;;;;2.80;1.35;;;23.60;99.90;;;;;;5144531;27;20077;-81
2023/07/29 11:34:53;;;;;;;3.92;1.48;;;23.70;99.90;;;;;;5133278;27;20070;-80
2023/07/29 11:37:20;;;;;;;6.13;1.33;;;23.90;99.90;;;;;;5144544;27;20039;-79
2023/07/29 11:39:46;;;;;;;3.72;1.40;;;24.00;99.90;;;;;;5144617;27;20041;-80
2023/07/29 11:42:12;;;;;;;5.18;1.42;;;24.10;99.90;;;;;;5146477;27;20129;-79
2023/07/29 11:44:38;;;;;;;5.80;1.48;;;24.00;99.90;;;;;;5144682;27;20074;-81
2023/07/29 11:47:11;;;;;;;3.53;1.40;;;24.10;99.90;;;;;;5138220;27;20078;-80
2023/07/29 11:49:39;;;;;;;2.83;1.25;;;24.50;99.90;;;;;;5151653;27;20034;-80
2023/07/29 11:52:07;;;;;;;5.25;1.50;;;24.50;99.90;;;;;;5125040;27;20039;-79
2023/07/29 11:54:34;;;;;;;5.15;1.67;;;24.40;99.90;;;;;;5136172;27;20068;-80
2023/07/29 11:57:00;;;;;;;4.50;1.70;;;24.40;99.90;;;;;;5135511;27;20051;-81
2023/07/29 11:59:28;;;;;;;3.85;1.65;;;24.30;99.90;;;;;;5134490;27;20393;-83
2023/07/29 12:01:53;;;;;;;2.85;1.65;;;24.20;99.90;;;;;;5131250;27;20041;-79
2023/07/29 12:04:19;;;;;;;6.75;1.85;;;24.40;99.90;;;;;;5142347;27;20035;-79
2023/07/29 12:06:45;;;;;;;4.45;1.77;;;24.40;99.90;;;;;;5135985;27;20027;-79
2023/07/29 12:09:11;;;;;;;4.10;1.90;;;24.00;99.90;;;;;;5134687;27;20115;-80
2023/07/29 12:11:36;;;;;;;6.50;1.70;;;23.90;99.90;;;;;;5135110;27;20168;-79
2023/07/29 12:14:02;;;;;;;4.05;1.73;;;23.70;99.90;;;;;;5132887;27;20119;-79
2023/07/29 12:16:34;;;;;;;4.57;1.75;;;23.60;99.90;;;;;;5124969;27;20554;-79
2023/07/29 12:19:00;;;;;;;6.30;1.73;;;23.60;99.90;;;;;;5141976;27;20034;-80
2023/07/29 12:21:26;;;;;;;5.32;1.73;;;23.60;99.90;;;;;;5137063;27;20027;-79
2023/07/29 12:23:51;;;;;;;3.28;1.52;;;23.70;99.90;;;;;;5133975;27;20127;-80
2023/07/29 12:26:17;;;;;;;4.97;2.00;;;23.80;99.90;;;;;;5144104;27;20092;-78
2023/07/29 12:28:46;;;;;;;7.72;2.33;;;24.10;99.90;;;;;;5136613;27;20030;-79
2023/07/29 12:31:12;;;;;;;6.30;2.20;;;24.70;99.90;;;;;;5142086;27;20031;-79
2023/07/29 12:33:39;;;;;;;4.57;2.00;;;24.70;99.90;;;;;;5149311;27;20038;-80
2023/07/29 12:36:05;;;;;;;6.15;2.25;;;24.40;99.90;;;;;;5138195;27;20124;-79
2023/07/29 12:38:30;;;;;;;3.85;1.70;;;24.10;99.90;;;;;;5139979;27;20456;-79
2023/07/29 12:40:56;;;;;;;4.00;2.25;;;24.00;99.90;;;;;;5139167;27;20082;-78
2023/07/29 12:43:22;;;;;;;5.60;2.10;;;24.00;99.90;;;;;;5141619;27;20035;-78
2023/07/29 12:45:50;;;;;;;4.45;1.85;;;23.90;99.90;;;;;;5137215;27;20127;-79
2023/07/29 12:48:16;;;;;;;6.85;2.00;;;23.80;99.90;;;;;;5146024;27;20035;-79